Monroe, LA (71203)

10:43 AM CST on February 28, 2017 (GMT -0600)
Swartz | | Change Station
Active Advisory: Lake Wind Advisory

Elev 98 ft 32.56 °N, 92.02 °W | Updated 22 seconds ago

Haze
Haze
75.9 °F
Feels Like 77 °F
N
4.9
Wind Variable Wind from SW
Gusts 7.4 mph

Today
High -- | Low -- °F
--% Chance of Precip.
Yesterday
High -- | Low -- °F
Precip. -- in
Pressure 30.04 in
Visibility 6.0 miles
Clouds Mostly Cloudy 2200 ft
Mostly Cloudy 7000 ft
Heat Index 77 °F
Dew Point 67 °F
Humidity 73%
Rainfall 0.00 in
Snow Depth Not available.
6:36 AM 6:05 PM
Waxing Crescent, 5% visible
SPECI KMLU 281619Z 18015G21KT 6SM HZ BKN022 BKN070 24/19 A3004 RMK AO2 T02390194
Pressure 30.04 in
Visibility 6.0 miles
Clouds Mostly Cloudy 2200 ft
Mostly Cloudy 7000 ft
Heat Index 77 °F
Dew Point 67 °F
Humidity 73%
Rainfall 0.00 in
Snow Depth Not available.
6:36 AM 6:05 PM
Waxing Crescent, 5% visible
SPECI KMLU 281619Z 18015G21KT 6SM HZ BKN022 BKN070 24/19 A3004 RMK AO2 T02390194

Get Your Daily Forecast Email!

Thanks for signing up!

Be on the lookout for a verification email in your inbox.

You'll start receiving the daily forecast at 8 AM.

×

10-Day Weather Forecast

Almanac

Astronomy

Feb. 28, 2017 Rise Set
Actual Time
Civil Twilight
Nautical Twilight
Astronomical Twilight
Moon
Length of Visible Light
Length of Day
Tomorrow will be .
, % of the Moon is Illuminated

Today's Extremes

State Highs State Lows

Community

WunderPhotos

Upload Photos

1,962,540 photos uploaded!

WunderBlog® & News

Nearby

Air Quality

  Air Quality AQ Index Pollutant
Not available.

Snow Depth

Station Depth Elevation

Earthquake Activity

City Distance Mag. Time & Date
Minimum magnitude displayed is 2.5.

Coastal Water Temperatures

Place Temperature

Stations

Nearby Weather Stations

Station Location Temp. Windchill Dew Point Humidity Wind Precip. Elev Updated Type
                   

Watches & Warnings

Lake Wind Advisory
Issued: 4:36 AM CST Feb. 28, 2017 – National Weather Service

... Lake Wind Advisory in effect from noon today to 6 PM CST this
evening...

The National Weather Service in Shreveport has issued a lake Wind
Advisory, which is in effect from noon today to 6 PM CST.

* Event... southwesterly winds of 15 to 20 mph with gusts to 25 mph
will develop with an approaching cold front tightening the pressure
gradient. These strong winds will gradually diminish toward
sunset and the early evening.

* Timing... during the afternoon hours.

* Impact... winds will likely produce rough chop on area lakes and
open waterways, which may be hazardous to boaters.

Precautionary/preparedness actions...

A lake Wind Advisory indicates that winds will cause rough chop
on area lakes. Small boats will be especially prone to taking
water over the sides perhaps to the Point of sinking or capsizing.



24